createdAt,value
2023-02-07T00:01:42.083Z,101914.94
2023-02-07T00:04:09.329Z,101909.59
2023-02-07T00:06:37.352Z,101909.03
2023-02-07T00:09:08.409Z,101916.22
2023-02-07T00:11:40.780Z,101920.81
2023-02-07T00:14:12.519Z,101936.09
2023-02-07T00:16:41.554Z,101927.09
2023-02-07T00:19:09.055Z,101935.72
2023-02-07T00:21:36.429Z,101933.34
2023-02-07T00:24:04.042Z,101940.69
2023-02-07T00:26:31.324Z,101937.41
2023-02-07T00:28:58.608Z,101943.31
2023-02-07T00:31:33.465Z,101948.81
2023-02-07T00:34:07.310Z,101953.59
2023-02-07T00:36:36.582Z,101943.28
2023-02-07T00:39:14.896Z,101942.00
2023-02-07T00:41:44.058Z,101950.25
2023-02-07T00:44:12.122Z,101947.31
2023-02-07T00:46:39.594Z,101959.81
2023-02-07T00:49:07.602Z,101958.31
2023-02-07T00:51:34.885Z,101961.22
2023-02-07T00:54:02.759Z,101973.75
2023-02-07T00:56:33.023Z,101980.91
2023-02-07T00:59:00.793Z,101974.09
2023-02-07T01:01:28.898Z,101972.63
2023-02-07T01:03:58.183Z,101974.84
2023-02-07T01:06:26.096Z,101975.03
2023-02-07T01:08:59.108Z,101970.06
2023-02-07T01:11:29.683Z,101970.34
2023-02-07T01:14:01.404Z,101975.47
2023-02-07T01:16:36.174Z,101971.91
2023-02-07T01:19:10.101Z,101970.63
2023-02-07T01:21:38.358Z,101962.84
2023-02-07T01:24:07.004Z,101961.75
2023-02-07T01:26:36.473Z,101960.06
2023-02-07T01:29:05.072Z,101973.84
2023-02-07T01:31:32.975Z,101987.41
2023-02-07T01:34:04.178Z,101993.00
2023-02-07T01:36:32.866Z,101992.44
2023-02-07T01:39:00.202Z,101991.88
2023-02-07T01:41:28.082Z,101992.56
2023-02-07T01:44:27.399Z,102001.34
2023-02-07T01:46:56.723Z,101990.88
2023-02-07T01:49:35.915Z,101994.69
2023-02-07T01:52:16.426Z,101998.91
2023-02-07T01:54:50.837Z,101993.47
2023-02-07T01:57:22.935Z,102002.84
2023-02-07T01:59:56.412Z,102000.63
2023-02-07T02:02:31.056Z,102009.09
2023-02-07T02:05:00.861Z,102014.59
2023-02-07T02:07:30.235Z,102009.94
2023-02-07T02:09:57.434Z,102010.88
2023-02-07T02:13:18.023Z,102026.34
2023-02-07T02:16:38.929Z,102023.72
2023-02-07T02:19:20.289Z,102023.34
2023-02-07T02:22:30.093Z,102028.28
2023-02-07T02:25:36.735Z,102022.69
2023-02-07T02:29:00.722Z,102033.44
2023-02-07T02:32:08.138Z,102028.38
2023-02-07T02:35:02.657Z,102023.47
2023-02-07T02:37:41.202Z,102019.34
2023-02-07T02:40:34.432Z,102011.56
2023-02-07T02:43:13.921Z,102021.50
2023-02-07T02:46:01.795Z,102020.31
2023-02-07T02:48:30.962Z,102034.16
2023-02-07T02:50:58.982Z,102029.56
2023-02-07T02:53:26.332Z,102037.03
2023-02-07T02:56:51.622Z,102045.22
2023-02-07T02:59:58.519Z,102047.75
2023-02-07T03:03:15.254Z,102035.09
2023-02-07T03:06:25.777Z,102043.38
2023-02-07T03:09:18.003Z,102041.66
2023-02-07T03:12:19.957Z,102053.66
2023-02-07T03:15:18.463Z,102053.91
2023-02-07T03:18:04.845Z,102067.72
2023-02-07T03:20:40.167Z,102071.56
2023-02-07T03:23:10.489Z,102066.00
2023-02-07T03:25:41.669Z,102084.69
2023-02-07T03:28:12.423Z,102092.38
2023-02-07T03:30:43.988Z,102098.25
2023-02-07T03:33:13.862Z,102105.28
2023-02-07T03:36:03.558Z,102107.66
2023-02-07T03:38:31.016Z,102100.06
2023-02-07T03:41:07.055Z,102102.66
2023-02-07T03:43:38.362Z,102099.28
2023-02-07T03:46:09.877Z,102090.13
2023-02-07T03:48:37.478Z,102088.59
2023-02-07T03:51:05.232Z,102094.47
2023-02-07T03:53:32.491Z,102100.00
2023-02-07T03:55:59.852Z,102097.31
2023-02-07T03:58:27.154Z,102110.34
2023-02-07T04:00:54.387Z,102117.53
2023-02-07T04:03:21.635Z,102115.09
2023-02-07T04:05:49.559Z,102120.34
2023-02-07T04:08:16.847Z,102123.84
2023-02-07T04:10:44.119Z,102126.50
2023-02-07T04:13:11.520Z,102117.59
2023-02-07T04:15:39.142Z,102123.53
2023-02-07T04:18:06.619Z,102118.94
2023-02-07T04:20:33.826Z,102120.56
2023-02-07T04:23:01.072Z,102122.03
2023-02-07T04:25:28.253Z,102118.53
2023-02-07T04:27:55.528Z,102112.88
2023-02-07T04:30:22.841Z,102111.94
2023-02-07T04:32:52.229Z,102110.94
2023-02-07T04:35:19.494Z,102115.44
2023-02-07T04:37:46.915Z,102112.47
2023-02-07T04:40:14.183Z,102119.75
2023-02-07T04:42:41.577Z,102122.13
2023-02-07T04:45:09.580Z,102126.44
2023-02-07T04:47:36.772Z,102129.09
2023-02-07T04:50:04.243Z,102122.66
2023-02-07T04:52:31.848Z,102132.91
2023-02-07T04:54:59.125Z,102133.72
2023-02-07T04:57:26.364Z,102144.28
2023-02-07T04:59:53.561Z,102144.06
2023-02-07T05:02:20.839Z,102143.88
2023-02-07T05:04:48.145Z,102154.16
2023-02-07T05:07:15.478Z,102160.22
2023-02-07T05:09:42.659Z,102164.09
2023-02-07T05:12:10.245Z,102171.50
2023-02-07T05:14:37.476Z,102166.34
2023-02-07T05:17:04.884Z,102170.66
2023-02-07T05:19:33.799Z,102168.81
2023-02-07T05:22:00.980Z,102174.78
2023-02-07T05:24:28.666Z,102171.19
2023-02-07T05:26:55.894Z,102170.75
2023-02-07T05:29:23.126Z,102173.97
2023-02-07T05:32:09.157Z,102189.84
2023-02-07T05:34:38.977Z,102191.16
2023-02-07T05:37:06.254Z,102195.06
2023-02-07T05:39:33.518Z,102198.16
2023-02-07T05:42:00.734Z,102197.78
2023-02-07T05:44:28.030Z,102198.28
2023-02-07T05:46:55.196Z,102202.78
2023-02-07T05:49:22.456Z,102210.47
2023-02-07T05:51:49.796Z,102198.84
2023-02-07T05:54:17.114Z,102208.63
2023-02-07T05:56:44.366Z,102219.88
2023-02-07T05:59:11.568Z,102223.88
2023-02-07T06:01:38.792Z,102229.19
2023-02-07T06:04:06.223Z,102235.63
2023-02-07T06:06:33.641Z,102253.88
2023-02-07T06:09:01.027Z,102245.88
2023-02-07T06:11:28.273Z,102249.41
2023-02-07T06:13:55.607Z,102252.56
2023-02-07T06:16:22.895Z,102256.22
2023-02-07T06:18:50.110Z,102247.63
2023-02-07T06:21:17.420Z,102243.25
2023-02-07T06:23:46.922Z,102251.50
2023-02-07T06:26:16.989Z,102258.63
2023-02-07T06:28:44.634Z,102255.25
2023-02-07T06:31:12.013Z,102262.03
2023-02-07T06:33:39.353Z,102267.84
2023-02-07T06:36:07.275Z,102278.16
2023-02-07T06:38:34.558Z,102272.63
2023-02-07T06:41:01.790Z,102271.13
2023-02-07T06:43:28.962Z,102273.78
2023-02-07T06:45:56.418Z,102275.78
2023-02-07T06:48:23.682Z,102276.03
2023-02-07T06:50:51.855Z,102271.19
2023-02-07T06:53:19.170Z,102268.50
2023-02-07T06:55:46.478Z,102266.56
2023-02-07T06:58:13.821Z,102267.56
2023-02-07T07:00:41.157Z,102271.09
2023-02-07T07:03:15.518Z,102265.28
2023-02-07T07:05:44.011Z,102269.38
2023-02-07T07:08:15.418Z,102273.72
2023-02-07T07:10:42.675Z,102282.69
2023-02-07T07:13:11.335Z,102278.47
2023-02-07T07:15:38.951Z,102284.72
2023-02-07T07:18:06.656Z,102275.97
2023-02-07T07:20:33.972Z,102275.81
2023-02-07T07:23:01.178Z,102282.78
2023-02-07T07:25:28.469Z,102276.81
2023-02-07T07:27:56.205Z,102276.97
2023-02-07T07:30:23.765Z,102275.44
2023-02-07T07:32:51.378Z,102278.31
2023-02-07T07:35:19.718Z,102284.09
2023-02-07T07:37:47.050Z,102287.19
2023-02-07T07:40:16.757Z,102287.41
2023-02-07T07:42:44.042Z,102291.50
2023-02-07T07:45:29.030Z,102282.88
2023-02-07T07:47:56.748Z,102294.59
2023-02-07T07:50:24.138Z,102293.94
2023-02-07T07:52:51.425Z,102299.81
2023-02-07T07:55:18.891Z,102303.94
2023-02-07T07:57:46.109Z,102299.81
2023-02-07T08:00:14.500Z,102308.03
2023-02-07T08:02:42.893Z,102304.50
2023-02-07T08:05:13.567Z,102304.97
2023-02-07T08:07:41.499Z,102302.91
2023-02-07T08:10:09.298Z,102304.63
2023-02-07T08:12:36.618Z,102304.72
2023-02-07T08:15:04.510Z,102317.44
2023-02-07T08:17:31.741Z,102313.31
2023-02-07T08:19:59.093Z,102307.91
2023-02-07T08:22:26.409Z,102319.41
2023-02-07T08:24:53.644Z,102306.84
2023-02-07T08:27:20.958Z,102304.66
2023-02-07T08:29:48.257Z,102307.13
2023-02-07T08:32:15.540Z,102307.31
2023-02-07T08:34:42.945Z,102310.06
2023-02-07T08:37:10.448Z,102308.81
2023-02-07T08:39:37.770Z,102309.22
2023-02-07T08:42:08.113Z,102299.78
2023-02-07T08:44:36.816Z,102298.91
2023-02-07T08:47:04.994Z,102302.38
2023-02-07T08:49:32.216Z,102298.44
2023-02-07T08:51:59.501Z,102303.81
2023-02-07T08:54:26.778Z,102293.31
2023-02-07T08:56:53.977Z,102299.84
2023-02-07T08:59:21.369Z,102285.94
2023-02-07T09:01:48.682Z,102291.09
2023-02-07T09:04:16.076Z,102293.56
2023-02-07T09:06:43.820Z,102283.88
2023-02-07T09:09:11.079Z,102273.19
2023-02-07T09:11:38.645Z,102278.72
2023-02-07T09:14:06.346Z,102267.50
2023-02-07T09:16:33.965Z,102266.59
2023-02-07T09:19:01.289Z,102262.22
2023-02-07T09:21:28.542Z,102249.78
2023-02-07T09:23:55.820Z,102246.47
2023-02-07T09:26:26.629Z,102250.72
2023-02-07T09:28:53.883Z,102237.03
2023-02-07T09:31:21.936Z,102239.25
2023-02-07T09:33:49.303Z,102234.09
2023-02-07T09:36:28.076Z,102226.16
2023-02-07T09:38:56.223Z,102227.06
2023-02-07T09:42:10.672Z,102229.63
2023-02-07T09:45:11.845Z,102229.09
2023-02-07T09:47:43.595Z,102227.00
2023-02-07T09:50:27.725Z,102226.06
2023-02-07T09:53:07.290Z,102221.16
2023-02-07T09:55:56.769Z,102218.22
2023-02-07T09:58:54.013Z,102213.44
2023-02-07T10:01:37.217Z,102221.88
2023-02-07T10:04:22.426Z,102215.69
2023-02-07T10:06:54.108Z,102206.81
2023-02-07T10:09:43.696Z,102215.50
2023-02-07T10:13:17.974Z,102215.13
2023-02-07T10:16:45.597Z,102211.03
2023-02-07T10:19:29.412Z,102209.44
2023-02-07T10:22:35.723Z,102212.09
2023-02-07T10:25:39.340Z,102207.91
2023-02-07T10:28:15.385Z,102211.09
2023-02-07T10:31:09.159Z,102204.09
2023-02-07T10:33:41.062Z,102193.75
2023-02-07T10:36:15.624Z,102180.13
2023-02-07T10:39:33.409Z,102181.84
2023-02-07T10:42:00.733Z,102163.63
2023-02-07T10:44:30.996Z,102152.88
2023-02-07T10:47:05.205Z,102153.78
2023-02-07T10:49:37.810Z,102141.97
2023-02-07T10:52:36.737Z,102147.25
2023-02-07T10:55:11.144Z,102135.91
2023-02-07T10:57:38.888Z,102132.88
2023-02-07T11:00:28.023Z,102137.56
2023-02-07T11:03:20.678Z,102124.91
2023-02-07T11:06:07.999Z,102122.88
2023-02-07T11:08:38.150Z,102109.19
2023-02-07T11:11:33.389Z,102095.34
2023-02-07T11:14:08.138Z,102076.09
2023-02-07T11:16:35.652Z,102090.63
2023-02-07T11:19:07.746Z,102083.78
2023-02-07T11:21:34.992Z,102085.25
2023-02-07T11:24:31.620Z,102064.81
2023-02-07T11:27:10.907Z,102058.47
2023-02-07T11:29:58.778Z,102055.56
2023-02-07T11:32:28.602Z,102054.38
2023-02-07T11:35:01.516Z,102031.66
2023-02-07T11:37:39.681Z,102028.25
2023-02-07T11:40:41.806Z,102029.91
2023-02-07T11:43:19.927Z,102033.13
2023-02-07T11:45:52.649Z,102025.09
2023-02-07T11:48:33.601Z,102011.69
2023-02-07T11:51:04.911Z,102031.50
2023-02-07T11:53:48.517Z,102031.81
2023-02-07T11:56:43.276Z,102018.94
2023-02-07T12:00:06.647Z,102030.00
2023-02-07T12:02:40.792Z,102033.53
2023-02-07T12:05:28.052Z,102029.88
2023-02-07T12:08:05.516Z,102014.66
2023-02-07T12:10:39.713Z,102018.88
2023-02-07T12:13:53.685Z,101995.53
2023-02-07T12:16:36.186Z,102000.66
2023-02-07T12:19:30.944Z,101991.19
2023-02-07T12:22:21.747Z,101973.47
2023-02-07T12:25:16.528Z,101972.41
2023-02-07T12:27:48.192Z,101962.22
2023-02-07T12:30:37.594Z,101957.50
2023-02-07T12:33:17.930Z,101944.28
2023-02-07T12:36:29.679Z,101936.13
2023-02-07T12:39:28.424Z,101921.09
2023-02-07T12:43:08.625Z,101915.44
2023-02-07T12:45:57.306Z,101904.25
2023-02-07T12:48:52.335Z,101892.47
2023-02-07T12:51:55.991Z,101883.75
2023-02-07T12:54:45.248Z,101877.97
2023-02-07T12:57:30.253Z,101875.84
2023-02-07T13:00:16.300Z,101866.22
2023-02-07T13:03:30.337Z,101870.22
2023-02-07T13:06:56.039Z,101860.25
2023-02-07T13:10:12.897Z,101849.53
2023-02-07T13:13:02.969Z,101858.13
2023-02-07T13:15:55.145Z,101851.56
2023-02-07T13:19:07.707Z,101855.84
2023-02-07T13:22:08.959Z,101859.34
2023-02-07T13:24:40.171Z,101858.44
2023-02-07T13:27:17.478Z,101867.28
2023-02-07T13:29:49.684Z,101859.19
2023-02-07T13:32:28.105Z,101849.69
2023-02-07T13:35:30.856Z,101843.91
2023-02-07T13:38:38.170Z,101835.06
2023-02-07T13:41:51.744Z,101828.81
2023-02-07T13:45:01.982Z,101828.78
2023-02-07T13:48:25.627Z,101827.59
2023-02-07T13:51:28.681Z,101829.38
2023-02-07T13:57:55.161Z,101809.09
2023-02-07T14:00:36.327Z,101812.59
2023-02-07T14:03:06.648Z,101804.34
2023-02-07T14:05:43.602Z,101799.28
2023-02-07T14:08:16.868Z,101790.88
2023-02-07T14:10:52.632Z,101795.16
2023-02-07T14:13:34.155Z,101796.25
2023-02-07T14:16:13.099Z,101788.81
2023-02-07T14:18:54.901Z,101778.97
2023-02-07T14:21:29.265Z,101780.50
2023-02-07T14:24:10.012Z,101771.88
2023-02-07T14:26:40.199Z,101770.66
2023-02-07T14:29:24.968Z,101765.47
2023-02-07T14:32:31.713Z,101773.22
2023-02-07T14:35:27.243Z,101762.47
2023-02-07T14:38:06.714Z,101757.50
2023-02-07T14:40:42.084Z,101753.66
2023-02-07T14:43:14.665Z,101754.97
2023-02-07T14:45:50.944Z,101752.66
2023-02-07T14:48:57.367Z,101754.22
2023-02-07T14:51:44.464Z,101760.66
2023-02-07T14:54:53.571Z,101747.63
2023-02-07T15:01:15.198Z,101754.09
2023-02-07T15:03:42.472Z,101744.78
2023-02-07T15:06:32.056Z,101750.09
2023-02-07T15:09:01.942Z,101751.94
2023-02-07T15:11:30.810Z,101740.91
2023-02-07T15:14:03.336Z,101750.22
2023-02-07T15:16:38.430Z,101746.53
2023-02-07T15:19:33.618Z,101743.47
2023-02-07T15:22:02.770Z,101742.94
2023-02-07T15:24:50.976Z,101748.72
2023-02-07T15:27:28.385Z,101750.22
2023-02-07T15:30:08.525Z,101746.31
2023-02-07T15:32:46.327Z,101734.09
2023-02-07T15:35:26.806Z,101741.91
2023-02-07T15:38:07.354Z,101734.44
2023-02-07T15:40:34.674Z,101737.75
2023-02-07T15:43:02.449Z,101737.47
2023-02-07T15:45:33.430Z,101729.81
2023-02-07T15:48:15.119Z,101721.31
2023-02-07T15:50:42.532Z,101729.22
2023-02-07T15:53:20.701Z,101723.75
2023-02-07T15:55:50.680Z,101728.94
2023-02-07T15:58:34.928Z,101727.22
2023-02-07T16:01:16.109Z,101734.53
2023-02-07T16:03:47.572Z,101723.56
2023-02-07T16:06:28.284Z,101734.69
2023-02-07T16:09:02.406Z,101735.91
2023-02-07T16:11:30.457Z,101735.28
2023-02-07T16:14:19.161Z,101734.63
2023-02-07T16:16:58.796Z,101750.75
2023-02-07T16:19:32.997Z,101747.97
2023-02-07T16:22:18.703Z,101744.56
2023-02-07T16:24:49.521Z,101742.09
2023-02-07T16:27:24.401Z,101748.47
2023-02-07T16:29:51.989Z,101744.47
2023-02-07T16:32:20.679Z,101752.63
2023-02-07T16:34:59.349Z,101742.88
2023-02-07T16:37:29.986Z,101739.63
2023-02-07T16:39:57.338Z,101747.28
2023-02-07T16:42:24.730Z,101742.44
2023-02-07T16:44:52.480Z,101744.00
2023-02-07T16:47:19.884Z,101744.19
2023-02-07T16:49:47.345Z,101755.59
2023-02-07T16:52:14.712Z,101752.53
2023-02-07T16:54:42.163Z,101757.63
2023-02-07T16:57:11.752Z,101758.81
2023-02-07T16:59:40.606Z,101759.41
2023-02-07T17:02:16.421Z,101761.03
2023-02-07T17:04:43.778Z,101763.06
2023-02-07T17:07:12.517Z,101766.19
2023-02-07T17:09:39.805Z,101763.00
2023-02-07T17:12:08.930Z,101770.31
2023-02-07T17:14:38.079Z,101766.72
2023-02-07T17:17:05.439Z,101775.44
2023-02-07T17:19:33.344Z,101773.47
2023-02-07T17:22:00.612Z,101766.13
2023-02-07T17:24:27.867Z,101760.38
2023-02-07T17:26:56.381Z,101763.03
2023-02-07T17:29:24.190Z,101764.34
2023-02-07T17:31:51.520Z,101766.03
2023-02-07T17:34:18.968Z,101770.72
2023-02-07T17:36:49.957Z,101769.13
2023-02-07T17:39:20.112Z,101764.31
2023-02-07T17:41:48.370Z,101767.75
2023-02-07T17:44:17.046Z,101769.44
2023-02-07T17:46:44.212Z,101768.06
2023-02-07T17:49:17.100Z,101774.91
2023-02-07T17:51:44.642Z,101778.09
2023-02-07T17:54:11.883Z,101777.38
2023-02-07T17:56:39.183Z,101775.75
2023-02-07T17:59:13.701Z,101780.72
2023-02-07T18:01:41.041Z,101784.47
2023-02-07T18:04:08.407Z,101793.66
2023-02-07T18:06:35.839Z,101800.28
2023-02-07T18:09:03.477Z,101799.41
2023-02-07T18:11:31.326Z,101802.94
2023-02-07T18:13:58.787Z,101804.78
2023-02-07T18:16:27.161Z,101806.25
2023-02-07T18:18:57.379Z,101806.28
2023-02-07T18:21:25.880Z,101819.56
2023-02-07T18:23:53.479Z,101819.72
2023-02-07T18:26:21.478Z,101822.88
2023-02-07T18:28:49.507Z,101827.66
2023-02-07T18:31:26.361Z,101822.88
2023-02-07T18:33:55.726Z,101821.59
2023-02-07T18:36:31.065Z,101819.53
2023-02-07T18:38:58.566Z,101827.09
2023-02-07T18:41:26.741Z,101828.97
2023-02-07T18:43:54.162Z,101837.97
2023-02-07T18:46:21.759Z,101837.63
2023-02-07T18:48:54.537Z,101839.06
2023-02-07T18:51:22.709Z,101850.13
2023-02-07T18:53:51.504Z,101853.25
2023-02-07T18:56:25.485Z,101855.47
2023-02-07T18:58:56.451Z,101857.50
2023-02-07T19:01:27.890Z,101859.72
2023-02-07T19:03:56.368Z,101863.78
2023-02-07T19:06:30.442Z,101871.69
2023-02-07T19:08:58.452Z,101865.25
2023-02-07T19:11:26.634Z,101878.31
2023-02-07T19:13:55.071Z,101875.91
2023-02-07T19:16:27.186Z,101868.91
2023-02-07T19:18:59.681Z,101882.88
2023-02-07T19:21:27.437Z,101881.44
2023-02-07T19:23:57.839Z,101884.00
2023-02-07T19:26:26.047Z,101886.91
2023-02-07T19:28:53.664Z,101887.47
2023-02-07T19:31:22.050Z,101897.59
2023-02-07T19:33:50.879Z,101895.75
2023-02-07T19:36:19.442Z,101897.03
2023-02-07T19:38:48.766Z,101895.75
2023-02-07T19:41:19.369Z,101898.00
2023-02-07T19:43:47.306Z,101890.09
2023-02-07T19:46:15.213Z,101895.06
2023-02-07T19:48:43.837Z,101900.16
2023-02-07T19:51:27.907Z,101905.31
2023-02-07T19:53:59.560Z,101899.09
2023-02-07T19:56:34.598Z,101901.66
2023-02-07T19:59:06.440Z,101906.44
2023-02-07T20:01:37.944Z,101904.75
2023-02-07T20:04:06.258Z,101907.69
2023-02-07T20:06:35.235Z,101904.00
2023-02-07T20:09:06.016Z,101908.78
2023-02-07T20:11:34.456Z,101907.50
2023-02-07T20:14:03.710Z,101896.66
2023-02-07T20:16:36.735Z,101914.47
2023-02-07T20:19:07.079Z,101911.13
2023-02-07T20:21:36.503Z,101906.38
2023-02-07T20:24:05.325Z,101909.66
2023-02-07T20:26:42.613Z,101915.72
2023-02-07T20:29:16.922Z,101916.66
2023-02-07T20:31:48.360Z,101918.50
2023-02-07T20:34:16.697Z,101914.09
2023-02-07T20:36:44.172Z,101909.31
2023-02-07T20:39:16.885Z,101907.81
2023-02-07T20:41:46.200Z,101910.59
2023-02-07T20:44:22.924Z,101917.75
2023-02-07T20:46:50.928Z,101918.50
2023-02-07T20:49:29.383Z,101920.00
2023-02-07T20:51:59.226Z,101919.06
2023-02-07T20:54:30.108Z,101923.28
2023-02-07T20:56:57.812Z,101922.72
2023-02-07T20:59:30.869Z,101923.25
2023-02-07T21:01:58.870Z,101935.94
2023-02-07T21:04:28.723Z,101940.53
2023-02-07T21:06:56.068Z,101945.84
2023-02-07T21:09:23.742Z,101936.13
2023-02-07T21:11:53.293Z,101940.59
2023-02-07T21:14:32.712Z,101944.63
2023-02-07T21:17:06.517Z,101940.53
2023-02-07T21:19:36.615Z,101941.09
2023-02-07T21:22:04.583Z,101947.47
2023-02-07T21:24:33.186Z,101951.19
2023-02-07T21:27:03.085Z,101946.41
2023-02-07T21:29:30.958Z,101946.78
2023-02-07T21:31:58.231Z,101958.72
2023-02-07T21:34:25.723Z,101957.78
2023-02-07T21:36:53.479Z,101957.59
2023-02-07T21:39:20.966Z,101961.09
2023-02-07T21:41:48.543Z,101959.47
2023-02-07T21:44:16.442Z,101964.06
2023-02-07T21:46:48.392Z,101968.47
2023-02-07T21:49:20.364Z,101970.66
2023-02-07T21:51:50.003Z,101974.16
2023-02-07T21:54:17.500Z,101967.69
2023-02-07T21:56:45.529Z,101970.03
2023-02-07T21:59:17.361Z,101980.94
2023-02-07T22:01:46.396Z,101981.50
2023-02-07T22:04:14.846Z,101986.81
2023-02-07T22:06:44.382Z,101989.72
2023-02-07T22:09:15.654Z,101986.44
2023-02-07T22:11:43.891Z,101991.59
2023-02-07T22:14:14.721Z,101993.78
2023-02-07T22:16:42.874Z,101992.09
2023-02-07T22:19:14.536Z,101994.84
2023-02-07T22:21:41.747Z,101992.84
2023-02-07T22:24:13.380Z,101994.28
2023-02-07T22:26:42.188Z,101993.00
2023-02-07T22:29:09.877Z,101987.50
2023-02-07T22:31:40.376Z,101996.84
2023-02-07T22:34:12.246Z,101988.25
2023-02-07T22:36:43.669Z,101998.56
2023-02-07T22:39:13.914Z,101997.78
2023-02-07T22:41:41.459Z,101998.47
2023-02-07T22:44:08.738Z,102002.56
2023-02-07T22:46:36.536Z,102003.09
2023-02-07T22:49:04.055Z,102004.84
2023-02-07T22:51:38.167Z,102008.75
2023-02-07T22:54:15.731Z,102005.22
2023-02-07T22:56:44.444Z,102008.13
2023-02-07T22:59:12.303Z,102009.47
2023-02-07T23:01:41.592Z,102013.81
2023-02-07T23:04:16.928Z,102022.63
2023-02-07T23:06:46.406Z,102023.53
2023-02-07T23:09:13.942Z,102027.47
2023-02-07T23:11:41.193Z,102020.69
2023-02-07T23:14:08.598Z,102026.91
2023-02-07T23:16:37.002Z,102022.88
2023-02-07T23:19:12.629Z,102025.44
2023-02-07T23:21:40.349Z,102018.41
2023-02-07T23:24:07.797Z,102019.81
2023-02-07T23:26:35.377Z,102021.25
2023-02-07T23:29:04.625Z,102019.94
2023-02-07T23:31:32.429Z,102022.25
2023-02-07T23:33:59.948Z,102016.72
2023-02-07T23:36:27.318Z,102019.69
2023-02-07T23:38:54.796Z,102018.53
2023-02-07T23:41:22.052Z,102023.38
2023-02-07T23:43:49.348Z,102019.69
2023-02-07T23:46:18.047Z,102021.66
2023-02-07T23:48:45.972Z,102016.84
2023-02-07T23:51:15.032Z,102018.34
2023-02-07T23:53:43.965Z,102018.75
2023-02-07T23:56:17.433Z,102015.28
2023-02-07T23:58:46.205Z,102013.41
